sensor_id;sensor_type;location;lat;lon;timestamp;pressure;altitude;pressure_sealevel;temperature;humidity
21960;BME280;11144;43.030;25.108;2023-06-26T00:00:18;99013.66;;;19.69;84.18
21960;BME280;11144;43.030;25.108;2023-06-26T00:01:52;99011.75;;;19.64;84.23
21960;BME280;11144;43.030;25.108;2023-06-26T00:03:25;99014.41;;;19.64;84.31
21960;BME280;11144;43.030;25.108;2023-06-26T00:05:01;99021.88;;;19.67;84.54
21960;BME280;11144;43.030;25.108;2023-06-26T00:06:35;99016.31;;;19.69;84.90
21960;BME280;11144;43.030;25.108;2023-06-26T00:08:11;99018.72;;;19.70;84.85
21960;BME280;11144;43.030;25.108;2023-06-26T00:09:44;99017.28;;;19.63;84.37
21960;BME280;11144;43.030;25.108;2023-06-26T00:11:18;99010.06;;;19.58;84.91
21960;BME280;11144;43.030;25.108;2023-06-26T00:12:51;99013.78;;;19.57;84.72
21960;BME280;11144;43.030;25.108;2023-06-26T00:14:25;99009.56;;;19.61;84.83
21960;BME280;11144;43.030;25.108;2023-06-26T00:15:58;99001.84;;;19.60;84.92
21960;BME280;11144;43.030;25.108;2023-06-26T00:17:35;99008.75;;;19.61;84.65
21960;BME280;11144;43.030;25.108;2023-06-26T00:19:09;99007.72;;;19.62;85.04
21960;BME280;11144;43.030;25.108;2023-06-26T00:20:42;99006.91;;;19.61;84.78
21960;BME280;11144;43.030;25.108;2023-06-26T00:22:15;99010.06;;;19.58;84.70
21960;BME280;11144;43.030;25.108;2023-06-26T00:23:49;99010.06;;;19.58;84.86
21960;BME280;11144;43.030;25.108;2023-06-26T00:25:23;99005.00;;;19.57;84.88
21960;BME280;11144;43.030;25.108;2023-06-26T00:26:56;99004.69;;;19.53;84.78
21960;BME280;11144;43.030;25.108;2023-06-26T00:28:30;99004.38;;;19.50;84.63
21960;BME280;11144;43.030;25.108;2023-06-26T00:30:03;99003.00;;;19.47;85.01
21960;BME280;11144;43.030;25.108;2023-06-26T00:31:36;99005.09;;;19.45;85.02
21960;BME280;11144;43.030;25.108;2023-06-26T00:33:10;99000.84;;;19.44;84.90
21960;BME280;11144;43.030;25.108;2023-06-26T00:34:43;99007.28;;;19.48;84.80
21960;BME280;11144;43.030;25.108;2023-06-26T00:36:20;99000.91;;;19.49;84.82
21960;BME280;11144;43.030;25.108;2023-06-26T00:37:54;98986.44;;;19.40;84.71
21960;BME280;11144;43.030;25.108;2023-06-26T00:39:28;98998.81;;;19.51;84.87
21960;BME280;11144;43.030;25.108;2023-06-26T00:41:01;98998.81;;;19.51;84.84
21960;BME280;11144;43.030;25.108;2023-06-26T00:42:35;98988.19;;;19.51;84.93
21960;BME280;11144;43.030;25.108;2023-06-26T00:44:08;98998.31;;;19.54;84.66
21960;BME280;11144;43.030;25.108;2023-06-26T00:45:42;98995.44;;;19.56;84.68
21960;BME280;11144;43.030;25.108;2023-06-26T00:47:15;98986.88;;;19.54;84.60
21960;BME280;11144;43.030;25.108;2023-06-26T00:48:49;98991.69;;;19.57;84.46
21960;BME280;11144;43.030;25.108;2023-06-26T00:50:22;98993.00;;;19.54;84.57
21960;BME280;11144;43.030;25.108;2023-06-26T00:51:57;98989.22;;;19.50;84.51
21960;BME280;11144;43.030;25.108;2023-06-26T00:53:31;98992.34;;;19.47;84.80
21960;BME280;11144;43.030;25.108;2023-06-26T00:55:05;98992.34;;;19.47;84.96
21960;BME280;11144;43.030;25.108;2023-06-26T00:56:40;98982.53;;;19.48;84.89
21960;BME280;11144;43.030;25.108;2023-06-26T00:58:14;98983.34;;;19.48;84.91
21960;BME280;11144;43.030;25.108;2023-06-26T00:59:48;98984.94;;;19.49;84.61
21960;BME280;11144;43.030;25.108;2023-06-26T01:01:21;98986.56;;;19.50;84.68
21960;BME280;11144;43.030;25.108;2023-06-26T01:02:57;98987.38;;;19.51;84.91
21960;BME280;11144;43.030;25.108;2023-06-26T01:04:32;98991.63;;;19.52;84.73
21960;BME280;11144;43.030;25.108;2023-06-26T01:06:05;98986.09;;;19.53;84.69
21960;BME280;11144;43.030;25.108;2023-06-26T01:07:40;98982.63;;;19.53;84.46
21960;BME280;11144;43.030;25.108;2023-06-26T01:09:14;98979.13;;;19.52;84.71
21960;BME280;11144;43.030;25.108;2023-06-26T01:10:49;98977.28;;;19.53;84.49
21960;BME280;11144;43.030;25.108;2023-06-26T01:12:23;98972.22;;;19.51;84.59
21960;BME280;11144;43.030;25.108;2023-06-26T01:13:57;98978.09;;;19.53;84.63
21960;BME280;11144;43.030;25.108;2023-06-26T01:15:33;98974.63;;;19.53;84.67
21960;BME280;11144;43.030;25.108;2023-06-26T01:17:05;98963.38;;;19.46;84.59
21960;BME280;11144;43.030;25.108;2023-06-26T01:18:44;98983.09;;;19.50;84.50
21960;BME280;11144;43.030;25.108;2023-06-26T01:20:19;98981.25;;;19.50;84.54
21960;BME280;11144;43.030;25.108;2023-06-26T01:21:58;98977.22;;;19.48;84.78
21960;BME280;11144;43.030;25.108;2023-06-26T01:23:38;98980.44;;;19.50;84.72
21960;BME280;11144;43.030;25.108;2023-06-26T01:25:17;98976.47;;;19.52;84.66
21960;BME280;11144;43.030;25.108;2023-06-26T01:26:55;98978.09;;;19.53;84.48
21960;BME280;11144;43.030;25.108;2023-06-26T01:28:28;98975.44;;;19.53;84.61
21960;BME280;11144;43.030;25.108;2023-06-26T01:30:03;98977.84;;;19.55;84.79
21960;BME280;11144;43.030;25.108;2023-06-26T01:31:35;98977.84;;;19.55;85.02
21960;BME280;11144;43.030;25.108;2023-06-26T01:33:10;98981.31;;;19.55;84.96
21960;BME280;11144;43.030;25.108;2023-06-26T01:34:45;98976.81;;;19.56;84.96
21960;BME280;11144;43.030;25.108;2023-06-26T01:36:18;98982.44;;;19.59;84.55
21960;BME280;11144;43.030;25.108;2023-06-26T01:37:52;98978.16;;;19.58;84.49
21960;BME280;11144;43.030;25.108;2023-06-26T01:39:24;98968.84;;;19.56;84.70
21960;BME280;11144;43.030;25.108;2023-06-26T01:40:58;98964.00;;;19.53;84.54
21960;BME280;11144;43.030;25.108;2023-06-26T01:42:33;98974.44;;;19.59;84.98
21960;BME280;11144;43.030;25.108;2023-06-26T01:44:26;98972.81;;;19.58;85.50
21960;BME280;11144;43.030;25.108;2023-06-26T01:46:05;98972.06;;;19.58;85.10
21960;BME280;11144;43.030;25.108;2023-06-26T01:47:40;98973.63;;;19.59;85.14
21960;BME280;11144;43.030;25.108;2023-06-26T01:49:21;98977.66;;;19.61;85.20
21960;BME280;11144;43.030;25.108;2023-06-26T01:50:58;98977.66;;;19.61;85.28
21960;BME280;11144;43.030;25.108;2023-06-26T01:52:41;98972.81;;;19.58;85.33
21960;BME280;11144;43.030;25.108;2023-06-26T01:54:18;98977.19;;;19.64;85.16
21960;BME280;11144;43.030;25.108;2023-06-26T01:55:56;98981.19;;;19.67;85.07
21960;BME280;11144;43.030;25.108;2023-06-26T01:57:35;98980.69;;;19.70;84.62
21960;BME280;11144;43.030;25.108;2023-06-26T01:59:09;98970.06;;;19.70;84.70
21960;BME280;11144;43.030;25.108;2023-06-26T02:00:45;98974.88;;;19.73;84.85
21960;BME280;11144;43.030;25.108;2023-06-26T02:02:19;98974.38;;;19.76;84.62
21960;BME280;11144;43.030;25.108;2023-06-26T02:03:52;98978.34;;;19.73;84.82
21960;BME280;11144;43.030;25.108;2023-06-26T02:05:27;98973.53;;;19.70;84.91
21960;BME280;11144;43.030;25.108;2023-06-26T02:07:04;98979.88;;;19.69;84.81
21960;BME280;11144;43.030;25.108;2023-06-26T02:08:37;98979.09;;;19.69;85.08
21960;BME280;11144;43.030;25.108;2023-06-26T02:10:11;98971.34;;;19.67;84.72
21960;BME280;11144;43.030;25.108;2023-06-26T02:11:44;98952.38;;;19.59;84.85
21960;BME280;11144;43.030;25.108;2023-06-26T02:13:19;98973.44;;;19.65;84.98
21960;BME280;11144;43.030;25.108;2023-06-26T02:14:52;98968.66;;;19.62;84.94
21960;BME280;11144;43.030;25.108;2023-06-26T02:16:29;98971.84;;;19.64;85.29
21960;BME280;11144;43.030;25.108;2023-06-26T02:18:02;98975.31;;;19.65;85.26
21960;BME280;11144;43.030;25.108;2023-06-26T02:19:35;98972.63;;;19.65;84.83
21960;BME280;11144;43.030;25.108;2023-06-26T02:21:09;98970.56;;;19.67;84.83
21960;BME280;11144;43.030;25.108;2023-06-26T02:22:42;98963.88;;;19.64;84.79
21960;BME280;11144;43.030;25.108;2023-06-26T02:24:17;98969.19;;;19.64;84.62
21960;BME280;11144;43.030;25.108;2023-06-26T02:25:50;98973.72;;;19.64;84.93
21960;BME280;11144;43.030;25.108;2023-06-26T02:27:23;98971.06;;;19.64;84.52
21960;BME280;11144;43.030;25.108;2023-06-26T02:28:59;98970.50;;;19.62;84.54
21960;BME280;11144;43.030;25.108;2023-06-26T02:30:32;98961.34;;;19.53;84.36
21960;BME280;11144;43.030;25.108;2023-06-26T02:32:06;98958.94;;;19.51;84.67
21960;BME280;11144;43.030;25.108;2023-06-26T02:33:41;98956.75;;;19.48;84.48
21960;BME280;11144;43.030;25.108;2023-06-26T02:35:14;98967.50;;;19.58;84.61
21960;BME280;11144;43.030;25.108;2023-06-26T02:36:47;98969.31;;;19.53;84.54
21960;BME280;11144;43.030;25.108;2023-06-26T02:38:20;98964.56;;;19.55;84.63
21960;BME280;11144;43.030;25.108;2023-06-26T02:39:52;98968.03;;;19.55;84.66
21960;BME280;11144;43.030;25.108;2023-06-26T02:41:26;98959.16;;;19.50;84.66
21960;BME280;11144;43.030;25.108;2023-06-26T02:42:58;98963.75;;;19.54;84.42
21960;BME280;11144;43.030;25.108;2023-06-26T02:44:33;98966.19;;;19.56;84.65
21960;BME280;11144;43.030;25.108;2023-06-26T02:46:06;98971.22;;;19.57;84.61
21960;BME280;11144;43.030;25.108;2023-06-26T02:47:40;98968.84;;;19.56;84.43
21960;BME280;11144;43.030;25.108;2023-06-26T02:49:15;98969.94;;;19.60;84.66
21960;BME280;11144;43.030;25.108;2023-06-26T02:50:51;98959.25;;;19.55;84.96
21960;BME280;11144;43.030;25.108;2023-06-26T02:52:29;98967.22;;;19.55;84.49
21960;BME280;11144;43.030;25.108;2023-06-26T02:54:02;98969.00;;;19.49;85.00
21960;BME280;11144;43.030;25.108;2023-06-26T02:55:36;98971.66;;;19.49;84.87
21960;BME280;11144;43.030;25.108;2023-06-26T02:57:09;98970.59;;;19.50;85.13
21960;BME280;11144;43.030;25.108;2023-06-26T02:58:47;98962.06;;;19.48;85.16
21960;BME280;11144;43.030;25.108;2023-06-26T03:00:22;98959.91;;;19.45;84.99
21960;BME280;11144;43.030;25.108;2023-06-26T03:01:57;98963.56;;;19.39;85.02
21960;BME280;11144;43.030;25.108;2023-06-26T03:03:36;98968.31;;;19.37;85.11
21960;BME280;11144;43.030;25.108;2023-06-26T03:05:17;98968.41;;;19.42;85.21
21960;BME280;11144;43.030;25.108;2023-06-26T03:06:51;98969.97;;;19.43;85.08
21960;BME280;11144;43.030;25.108;2023-06-26T03:08:25;98964.19;;;19.46;84.93
21960;BME280;11144;43.030;25.108;2023-06-26T03:09:58;98966.34;;;19.49;84.88
21960;BME280;11144;43.030;25.108;2023-06-26T03:11:32;98965.28;;;19.50;84.82
21960;BME280;11144;43.030;25.108;2023-06-26T03:13:05;98969.81;;;19.50;84.79
21960;BME280;11144;43.030;25.108;2023-06-26T03:14:39;98969.50;;;19.46;84.85
21960;BME280;11144;43.030;25.108;2023-06-26T03:16:14;98970.25;;;19.42;84.82
21960;BME280;11144;43.030;25.108;2023-06-26T03:17:47;98967.25;;;19.38;85.09
21960;BME280;11144;43.030;25.108;2023-06-26T03:19:28;98966.69;;;19.36;84.87
21960;BME280;11144;43.030;25.108;2023-06-26T03:21:30;98979.88;;;19.48;84.67
21960;BME280;11144;43.030;25.108;2023-06-26T03:23:05;98982.06;;;19.51;84.70
21960;BME280;11144;43.030;25.108;2023-06-26T03:24:38;98981.53;;;19.54;84.55
21960;BME280;11144;43.030;25.108;2023-06-26T03:26:12;98979.69;;;19.54;85.04
21960;BME280;11144;43.030;25.108;2023-06-26T03:27:47;98970.06;;;19.48;84.80
21960;BME280;11144;43.030;25.108;2023-06-26T03:29:22;98981.88;;;19.57;84.74
21960;BME280;11144;43.030;25.108;2023-06-26T03:30:56;98978.09;;;19.53;84.82
21960;BME280;11144;43.030;25.108;2023-06-26T03:32:31;98990.41;;;19.59;84.70
21960;BME280;11144;43.030;25.108;2023-06-26T03:34:05;98982.97;;;19.61;84.42
21960;BME280;11144;43.030;25.108;2023-06-26T03:35:38;98990.47;;;19.64;84.48
21960;BME280;11144;43.030;25.108;2023-06-26T03:37:14;98985.72;;;19.66;84.55
21960;BME280;11144;43.030;25.108;2023-06-26T03:38:47;98991.59;;;19.68;84.35
21960;BME280;11144;43.030;25.108;2023-06-26T03:40:21;98985.19;;;19.69;84.40
21960;BME280;11144;43.030;25.108;2023-06-26T03:41:55;98985.19;;;19.69;84.45
21960;BME280;11144;43.030;25.108;2023-06-26T03:43:32;98983.34;;;19.70;84.19
21960;BME280;11144;43.030;25.108;2023-06-26T03:45:16;98989.47;;;19.70;84.40
21960;BME280;11144;43.030;25.108;2023-06-26T03:46:49;98979.38;;;19.72;84.42
21960;BME280;11144;43.030;25.108;2023-06-26T03:48:24;98983.41;;;19.75;84.35
21960;BME280;11144;43.030;25.108;2023-06-26T03:49:57;98983.72;;;19.78;84.46
21960;BME280;11144;43.030;25.108;2023-06-26T03:51:31;98985.63;;;19.83;84.16
21960;BME280;11144;43.030;25.108;2023-06-26T03:53:04;98979.28;;;19.84;84.24
21960;BME280;11144;43.030;25.108;2023-06-26T03:54:36;98975.59;;;19.90;84.00
21960;BME280;11144;43.030;25.108;2023-06-26T03:56:10;98980.44;;;19.93;83.86
21960;BME280;11144;43.030;25.108;2023-06-26T03:57:43;98977.50;;;19.95;84.04
21960;BME280;11144;43.030;25.108;2023-06-26T03:59:17;98976.47;;;19.96;83.86
21960;BME280;11144;43.030;25.108;2023-06-26T04:00:51;98979.91;;;19.96;83.57
21960;BME280;11144;43.030;25.108;2023-06-26T04:02:25;98973.31;;;19.99;83.83
21960;BME280;11144;43.030;25.108;2023-06-26T04:04:01;98972.50;;;19.98;83.54
21960;BME280;11144;43.030;25.108;2023-06-26T04:05:36;98963.41;;;19.94;83.01
21960;BME280;11144;43.030;25.108;2023-06-26T04:07:10;98968.50;;;19.96;82.58
21960;BME280;11144;43.030;25.108;2023-06-26T04:08:43;98964.28;;;20.00;82.19
21960;BME280;11144;43.030;25.108;2023-06-26T04:10:16;98973.34;;;20.04;82.24
21960;BME280;11144;43.030;25.108;2023-06-26T04:11:50;98967.28;;;20.08;82.15
21960;BME280;11144;43.030;25.108;2023-06-26T04:13:23;98969.44;;;20.11;82.63
21960;BME280;11144;43.030;25.108;2023-06-26T04:14:56;98974.25;;;20.14;81.84
21960;BME280;11144;43.030;25.108;2023-06-26T04:16:29;98969.75;;;20.15;81.47
21960;BME280;11144;43.030;25.108;2023-06-26T04:18:03;98956.84;;;20.02;81.40
21960;BME280;11144;43.030;25.108;2023-06-26T04:19:38;98980.94;;;20.17;81.62
21960;BME280;11144;43.030;25.108;2023-06-26T04:21:12;98983.06;;;20.15;82.19
21960;BME280;11144;43.030;25.108;2023-06-26T04:22:45;98983.06;;;20.15;82.23
21960;BME280;11144;43.030;25.108;2023-06-26T04:24:18;98983.00;;;20.10;82.43
21960;BME280;11144;43.030;25.108;2023-06-26T04:25:52;98986.75;;;20.14;82.69
21960;BME280;11144;43.030;25.108;2023-06-26T04:27:25;98984.16;;;20.19;82.76
21960;BME280;11144;43.030;25.108;2023-06-26T04:28:58;98975.72;;;20.22;83.26
21960;BME280;11144;43.030;25.108;2023-06-26T04:30:32;98985.06;;;20.24;83.23
21960;BME280;11144;43.030;25.108;2023-06-26T04:32:06;98968.69;;;20.16;83.17
21960;BME280;11144;43.030;25.108;2023-06-26T04:33:40;98987.81;;;20.34;83.60
21960;BME280;11144;43.030;25.108;2023-06-26T04:35:15;98992.38;;;20.39;83.42
21960;BME280;11144;43.030;25.108;2023-06-26T04:36:49;98994.53;;;20.42;83.36
21960;BME280;11144;43.030;25.108;2023-06-26T04:38:22;98995.31;;;20.42;83.00
21960;BME280;11144;43.030;25.108;2023-06-26T04:39:56;98994.53;;;20.42;82.80
21960;BME280;11144;43.030;25.108;2023-06-26T04:41:29;98986.19;;;20.33;82.97
21960;BME280;11144;43.030;25.108;2023-06-26T04:43:03;98997.16;;;20.37;83.22
21960;BME280;11144;43.030;25.108;2023-06-26T04:44:36;99002.47;;;20.37;83.34
21960;BME280;11144;43.030;25.108;2023-06-26T04:46:09;99008.28;;;20.34;83.13
21960;BME280;11144;43.030;25.108;2023-06-26T04:47:43;98990.59;;;20.23;83.07
21960;BME280;11144;43.030;25.108;2023-06-26T04:49:16;99003.97;;;20.28;83.02
21960;BME280;11144;43.030;25.108;2023-06-26T04:50:51;99010.41;;;20.32;83.30
21960;BME280;11144;43.030;25.108;2023-06-26T04:52:26;99010.13;;;20.33;83.36
21960;BME280;11144;43.030;25.108;2023-06-26T04:53:59;98984.31;;;20.29;83.27
21960;BME280;11144;43.030;25.108;2023-06-26T04:55:32;98997.19;;;20.42;83.03
21960;BME280;11144;43.030;25.108;2023-06-26T04:57:08;99008.75;;;20.52;83.19
21960;BME280;11144;43.030;25.108;2023-06-26T04:58:43;99001.00;;;20.51;82.84
21960;BME280;11144;43.030;25.108;2023-06-26T05:00:17;99008.47;;;20.54;82.53
21960;BME280;11144;43.030;25.108;2023-06-26T05:01:50;99011.19;;;20.59;82.69
21960;BME280;11144;43.030;25.108;2023-06-26T05:03:24;99013.38;;;20.62;82.23
21960;BME280;11144;43.030;25.108;2023-06-26T05:04:58;99010.19;;;20.65;82.58
21960;BME280;11144;43.030;25.108;2023-06-26T05:06:32;99006.41;;;20.61;82.00
21960;BME280;11144;43.030;25.108;2023-06-26T05:08:16;99018.44;;;20.64;82.72
21960;BME280;11144;43.030;25.108;2023-06-26T05:09:50;99015.25;;;20.67;81.95
21960;BME280;11144;43.030;25.108;2023-06-26T05:11:24;99018.44;;;20.64;82.00
21960;BME280;11144;43.030;25.108;2023-06-26T05:12:57;99024.84;;;20.68;82.17
21960;BME280;11144;43.030;25.108;2023-06-26T05:14:31;99024.03;;;20.67;81.73
21960;BME280;11144;43.030;25.108;2023-06-26T05:16:04;99024.25;;;20.61;81.97
21960;BME280;11144;43.030;25.108;2023-06-26T05:17:37;99031.63;;;20.48;81.76
21960;BME280;11144;43.030;25.108;2023-06-26T05:19:11;99036.34;;;20.41;82.38
21960;BME280;11144;43.030;25.108;2023-06-26T05:20:45;99036.06;;;20.43;81.82
21960;BME280;11144;43.030;25.108;2023-06-26T05:22:20;99031.81;;;20.42;81.52
21960;BME280;11144;43.030;25.108;2023-06-26T05:23:56;99033.66;;;20.41;81.56
21960;BME280;11144;43.030;25.108;2023-06-26T05:25:30;99031.81;;;20.42;81.95
21960;BME280;11144;43.030;25.108;2023-06-26T05:27:04;99031.81;;;20.42;81.90
21960;BME280;11144;43.030;25.108;2023-06-26T05:28:38;99034.16;;;20.38;81.92
21960;BME280;11144;43.030;25.108;2023-06-26T05:30:14;99037.69;;;20.44;81.57
21960;BME280;11144;43.030;25.108;2023-06-26T05:31:49;99035.03;;;20.44;81.67
21960;BME280;11144;43.030;25.108;2023-06-26T05:33:24;99036.63;;;20.45;82.12
21960;BME280;11144;43.030;25.108;2023-06-26T05:34:58;99035.06;;;20.49;81.83
21960;BME280;11144;43.030;25.108;2023-06-26T05:36:35;99033.47;;;20.48;81.74
21960;BME280;11144;43.030;25.108;2023-06-26T05:38:10;99030.19;;;20.41;82.13
21960;BME280;11144;43.030;25.108;2023-06-26T05:39:45;99040.09;;;20.45;82.20
21960;BME280;11144;43.030;25.108;2023-06-26T05:41:19;99032.41;;;20.49;81.93
21960;BME280;11144;43.030;25.108;2023-06-26T05:42:53;99029.38;;;20.67;82.05
21960;BME280;11144;43.030;25.108;2023-06-26T05:44:26;99038.00;;;20.79;81.76
21960;BME280;11144;43.030;25.108;2023-06-26T05:45:59;99036.72;;;20.82;81.81
21960;BME280;11144;43.030;25.108;2023-06-26T05:47:33;99033.19;;;20.76;81.68
21960;BME280;11144;43.030;25.108;2023-06-26T05:49:07;99039.09;;;20.83;81.67
21960;BME280;11144;43.030;25.108;2023-06-26T05:50:41;99035.41;;;20.89;81.62
21960;BME280;11144;43.030;25.108;2023-06-26T05:52:16;99031.19;;;20.93;81.34
21960;BME280;11144;43.030;25.108;2023-06-26T05:53:51;99018.88;;;20.87;81.20
21960;BME280;11144;43.030;25.108;2023-06-26T05:55:25;99040.03;;;20.99;80.81
21960;BME280;11144;43.030;25.108;2023-06-26T05:56:59;99026.66;;;20.94;80.66
21960;BME280;11144;43.030;25.108;2023-06-26T05:58:32;99033.84;;;20.93;80.98
21960;BME280;11144;43.030;25.108;2023-06-26T06:00:07;99034.78;;;21.04;80.67
21960;BME280;11144;43.030;25.108;2023-06-26T06:01:46;99034.50;;;21.05;80.51
21960;BME280;11144;43.030;25.108;2023-06-26T06:03:19;99028.06;;;21.01;80.87
21960;BME280;11144;43.030;25.108;2023-06-26T06:04:53;99034.69;;;20.99;80.49
21960;BME280;11144;43.030;25.108;2023-06-26T06:06:26;99032.59;;;21.01;80.12
21960;BME280;11144;43.030;25.108;2023-06-26T06:08:00;99042.97;;;21.02;80.07
21960;BME280;11144;43.030;25.108;2023-06-26T06:09:34;99039.53;;;21.02;79.87
21960;BME280;11144;43.030;25.108;2023-06-26T06:11:08;99041.34;;;20.96;80.10
21960;BME280;11144;43.030;25.108;2023-06-26T06:12:41;99043.47;;;20.94;79.93
21960;BME280;11144;43.030;25.108;2023-06-26T06:14:15;99037.06;;;20.95;80.10
21960;BME280;11144;43.030;25.108;2023-06-26T06:15:48;99037.66;;;21.02;80.52
21960;BME280;11144;43.030;25.108;2023-06-26T06:17:22;99039.31;;;21.03;80.09
21960;BME280;11144;43.030;25.108;2023-06-26T06:18:56;99041.69;;;21.05;80.19
21960;BME280;11144;43.030;25.108;2023-06-26T06:20:29;99033.13;;;21.03;80.01
21960;BME280;11144;43.030;25.108;2023-06-26T06:22:03;99037.66;;;21.02;80.63
21960;BME280;11144;43.030;25.108;2023-06-26T06:23:36;99044.09;;;21.06;80.55
21960;BME280;11144;43.030;25.108;2023-06-26T06:25:11;99037.19;;;21.05;80.28
21960;BME280;11144;43.030;25.108;2023-06-26T06:26:45;99044.28;;;21.00;80.54
21960;BME280;11144;43.030;25.108;2023-06-26T06:28:18;99041.63;;;21.00;80.41
21960;BME280;11144;43.030;25.108;2023-06-26T06:29:51;99045.09;;;21.00;80.68
21960;BME280;11144;43.030;25.108;2023-06-26T06:31:25;99047.34;;;21.08;80.66
21960;BME280;11144;43.030;25.108;2023-06-26T06:33:01;99030.81;;;21.11;80.23
21960;BME280;11144;43.030;25.108;2023-06-26T06:34:35;99037.78;;;21.17;80.30
21960;BME280;11144;43.030;25.108;2023-06-26T06:36:08;99039.94;;;21.20;80.04
21960;BME280;11144;43.030;25.108;2023-06-26T06:37:40;99041.78;;;21.15;80.24
21960;BME280;11144;43.030;25.108;2023-06-26T06:39:14;99035.66;;;21.14;80.23
21960;BME280;11144;43.030;25.108;2023-06-26T06:40:49;99033.56;;;21.21;80.10
21960;BME280;11144;43.030;25.108;2023-06-26T06:42:22;99030.09;;;21.21;79.93
21960;BME280;11144;43.030;25.108;2023-06-26T06:43:55;99030.09;;;21.21;80.02
21960;BME280;11144;43.030;25.108;2023-06-26T06:45:29;99039.19;;;21.25;80.09
21960;BME280;11144;43.030;25.108;2023-06-26T06:47:02;99033.31;;;21.23;79.79
21960;BME280;11144;43.030;25.108;2023-06-26T06:48:36;99032.50;;;21.22;79.59
21960;BME280;11144;43.030;25.108;2023-06-26T06:50:09;99026.56;;;21.15;79.60
21960;BME280;11144;43.030;25.108;2023-06-26T06:51:43;99029.78;;;21.17;79.52
21960;BME280;11144;43.030;25.108;2023-06-26T06:53:17;99031.69;;;21.22;79.61
21960;BME280;11144;43.030;25.108;2023-06-26T06:54:53;99042.56;;;21.15;79.30
21960;BME280;11144;43.030;25.108;2023-06-26T06:56:28;99043.09;;;21.12;79.75
21960;BME280;11144;43.030;25.108;2023-06-26T06:58:02;99033.53;;;21.16;79.93
21960;BME280;11144;43.030;25.108;2023-06-26T06:59:37;99036.75;;;21.18;80.01
21960;BME280;11144;43.030;25.108;2023-06-26T07:01:10;99035.66;;;21.14;79.96
21960;BME280;11144;43.030;25.108;2023-06-26T07:02:45;99022.06;;;21.16;79.78
21960;BME280;11144;43.030;25.108;2023-06-26T07:04:18;99034.13;;;21.23;80.42
21960;BME280;11144;43.030;25.108;2023-06-26T07:05:52;99037.38;;;21.31;79.90
21960;BME280;11144;43.030;25.108;2023-06-26T07:07:28;99033.66;;;21.37;79.97
21960;BME280;11144;43.030;25.108;2023-06-26T07:09:03;99039.56;;;21.44;79.98
21960;BME280;11144;43.030;25.108;2023-06-26T07:10:38;99035.31;;;21.48;79.70
21960;BME280;11144;43.030;25.108;2023-06-26T07:12:13;99027.59;;;21.46;79.43
21960;BME280;11144;43.030;25.108;2023-06-26T07:13:46;99030.56;;;21.55;79.71
21960;BME280;11144;43.030;25.108;2023-06-26T07:15:20;99037.03;;;21.69;79.47
21960;BME280;11144;43.030;25.108;2023-06-26T07:16:55;99032.78;;;21.73;78.92
21960;BME280;11144;43.030;25.108;2023-06-26T07:18:29;99033.34;;;21.80;79.39
21960;BME280;11144;43.030;25.108;2023-06-26T07:20:03;99027.53;;;21.83;78.70
21960;BME280;11144;43.030;25.108;2023-06-26T07:21:39;99034.53;;;21.99;78.77
21960;BME280;11144;43.030;25.108;2023-06-26T07:23:13;99035.06;;;22.01;78.78
21960;BME280;11144;43.030;25.108;2023-06-26T07:24:47;99038.84;;;22.15;78.73
21960;BME280;11144;43.030;25.108;2023-06-26T07:26:20;99033.28;;;22.32;78.33
21960;BME280;11144;43.030;25.108;2023-06-26T07:28:12;99046.66;;;22.42;77.70
21960;BME280;11144;43.030;25.108;2023-06-26T07:29:46;99034.63;;;22.44;77.76
21960;BME280;11144;43.030;25.108;2023-06-26T07:31:20;99043.22;;;22.56;76.88
21960;BME280;11144;43.030;25.108;2023-06-26T07:32:54;99035.97;;;22.57;76.60
21960;BME280;11144;43.030;25.108;2023-06-26T07:34:27;99043.75;;;22.58;76.46
21960;BME280;11144;43.030;25.108;2023-06-26T07:36:01;99044.53;;;22.54;76.15
21960;BME280;11144;43.030;25.108;2023-06-26T07:37:34;99042.94;;;22.53;76.29
21960;BME280;11144;43.030;25.108;2023-06-26T07:39:10;99043.75;;;22.53;75.68
21960;BME280;11144;43.030;25.108;2023-06-26T07:40:50;99047.47;;;22.57;75.70
21960;BME280;11144;43.030;25.108;2023-06-26T07:42:24;99051.25;;;22.61;74.67
21960;BME280;11144;43.030;25.108;2023-06-26T07:43:59;99055.00;;;22.60;75.04
21960;BME280;11144;43.030;25.108;2023-06-26T07:45:32;99057.63;;;22.55;74.81
21960;BME280;11144;43.030;25.108;2023-06-26T07:47:05;99057.63;;;22.50;74.37
21960;BME280;11144;43.030;25.108;2023-06-26T07:48:39;99050.13;;;22.52;74.94
21960;BME280;11144;43.030;25.108;2023-06-26T07:50:13;99058.44;;;22.56;74.44
21960;BME280;11144;43.030;25.108;2023-06-26T07:51:51;99057.63;;;22.45;74.83
21960;BME280;11144;43.030;25.108;2023-06-26T07:53:24;99057.06;;;22.38;74.60
21960;BME280;11144;43.030;25.108;2023-06-26T07:54:58;99057.31;;;22.32;74.25
21960;BME280;11144;43.030;25.108;2023-06-26T07:56:35;99060.75;;;22.22;74.24
21960;BME280;11144;43.030;25.108;2023-06-26T07:58:08;99057.00;;;22.08;74.30
21960;BME280;11144;43.030;25.108;2023-06-26T07:59:43;99063.91;;;22.04;74.31
21960;BME280;11144;43.030;25.108;2023-06-26T08:01:17;99072.94;;;21.88;74.13
21960;BME280;11144;43.030;25.108;2023-06-26T08:02:50;99070.91;;;21.63;73.89
21960;BME280;11144;43.030;25.108;2023-06-26T08:04:25;99068.09;;;21.43;74.71
21960;BME280;11144;43.030;25.108;2023-06-26T08:05:58;99069.81;;;21.22;74.70
21960;BME280;11144;43.030;25.108;2023-06-26T08:07:32;99077.81;;;21.22;75.05
21960;BME280;11144;43.030;25.108;2023-06-26T08:09:05;99069.72;;;21.07;75.27
21960;BME280;11144;43.030;25.108;2023-06-26T08:10:39;99080.09;;;21.04;75.33
21960;BME280;11144;43.030;25.108;2023-06-26T08:12:12;99078.16;;;20.99;75.67
21960;BME280;11144;43.030;25.108;2023-06-26T08:13:46;99077.00;;;20.90;75.96